Last Chance, Colorado
Current Conditions -  °F | °C
As of 4:53 PM on Wednesday 28 Jan 2015 (Local Time) from KAKO Reporting Station
Clear Clear  
Wind Chill: 39°   Ceiling: Unl
Heat Index: 47°   Visibility: 10mi
Dew Point: 34°   Wind: 25mph
Humidity: 61%   Direction: 350°N
Pressure: 30.1"   Gusts: 33mph
Location:  39.8912°N, 103.605°W
Report Text: KAKO 282353Z AUTO 35022G29KT 10SM CLR 08/01 A3010 RMK AO2 PK WND 35037/2254 SLP192 T00830011 10156 20083 51029
Loading
Personal Weather Stations






























Interactive Weather Map New forecast layout! Learn more

10-Day Weather Forecast

Advertisements
Track Severe Weather on mobile